sensor_id;sensor_type;location;lat;lon;timestamp;pressure;altitude;pressure_sealevel;temperature;humidity
11413;BME280;5762;43.256;26.960;2023-05-19T00:02:09;99467.40;;;15.63;100.00
11413;BME280;5762;43.256;26.960;2023-05-19T00:04:39;99447.27;;;15.62;100.00
11413;BME280;5762;43.256;26.960;2023-05-19T00:07:09;99455.36;;;15.58;100.00
11413;BME280;5762;43.256;26.960;2023-05-19T00:09:37;99459.09;;;15.60;100.00
11413;BME280;5762;43.256;26.960;2023-05-19T00:12:07;99452.97;;;15.57;100.00
11413;BME280;5762;43.256;26.960;2023-05-19T00:14:36;99451.10;;;15.49;100.00
11413;BME280;5762;43.256;26.960;2023-05-19T00:17:06;99460.86;;;15.43;100.00
11413;BME280;5762;43.256;26.960;2023-05-19T00:19:35;99465.62;;;15.40;100.00
11413;BME280;5762;43.256;26.960;2023-05-19T00:22:04;99458.11;;;15.37;100.00
11413;BME280;5762;43.256;26.960;2023-05-19T00:24:33;99463.20;;;15.33;100.00
11413;BME280;5762;43.256;26.960;2023-05-19T00:27:02;99475.81;;;15.31;100.00
11413;BME280;5762;43.256;26.960;2023-05-19T00:29:31;99481.80;;;15.25;100.00
11413;BME280;5762;43.256;26.960;2023-05-19T00:31:59;99484.20;;;15.26;100.00
11413;BME280;5762;43.256;26.960;2023-05-19T00:34:28;99477.95;;;15.20;100.00
11413;BME280;5762;43.256;26.960;2023-05-19T00:36:56;99479.18;;;15.16;100.00
11413;BME280;5762;43.256;26.960;2023-05-19T00:39:25;99476.22;;;15.15;100.00
11413;BME280;5762;43.256;26.960;2023-05-19T00:41:54;99476.20;;;15.09;100.00
11413;BME280;5762;43.256;26.960;2023-05-19T00:44:23;99468.71;;;15.12;100.00
11413;BME280;5762;43.256;26.960;2023-05-19T00:46:52;99475.22;;;15.20;100.00
11413;BME280;5762;43.256;26.960;2023-05-19T00:49:21;99481.47;;;15.20;100.00
11413;BME280;5762;43.256;26.960;2023-05-19T00:51:50;99479.88;;;15.25;100.00
11413;BME280;5762;43.256;26.960;2023-05-19T00:54:19;99485.22;;;15.28;100.00
11413;BME280;5762;43.256;26.960;2023-05-19T00:56:47;99493.64;;;15.29;100.00
11413;BME280;5762;43.256;26.960;2023-05-19T00:59:16;99491.25;;;15.21;100.00
11413;BME280;5762;43.256;26.960;2023-05-19T01:01:45;99489.31;;;15.28;100.00
11413;BME280;5762;43.256;26.960;2023-05-19T01:04:17;99490.11;;;15.28;100.00
11413;BME280;5762;43.256;26.960;2023-05-19T01:06:47;99488.98;;;15.29;100.00
11413;BME280;5762;43.256;26.960;2023-05-19T01:09:16;99498.31;;;15.34;100.00
11413;BME280;5762;43.256;26.960;2023-05-19T01:11:45;99505.59;;;15.36;100.00
11413;BME280;5762;43.256;26.960;2023-05-19T01:14:14;99493.17;;;15.27;100.00
11413;BME280;5762;43.256;26.960;2023-05-19T01:16:53;99497.75;;;15.35;100.00
11413;BME280;5762;43.256;26.960;2023-05-19T01:27:34;99494.25;;;15.40;100.00
11413;BME280;5762;43.256;26.960;2023-05-19T01:32:36;99493.09;;;15.35;100.00
11413;BME280;5762;43.256;26.960;2023-05-19T01:35:05;99496.72;;;15.33;100.00
11413;BME280;5762;43.256;26.960;2023-05-19T01:37:36;99496.63;;;15.36;100.00
11413;BME280;5762;43.256;26.960;2023-05-19T01:40:05;99507.98;;;15.38;100.00
11413;BME280;5762;43.256;26.960;2023-05-19T01:42:33;99495.72;;;15.38;100.00
11413;BME280;5762;43.256;26.960;2023-05-19T01:45:02;99501.77;;;15.43;100.00
11413;BME280;5762;43.256;26.960;2023-05-19T01:47:33;99497.11;;;15.44;100.00
11413;BME280;5762;43.256;26.960;2023-05-19T01:50:02;99499.48;;;15.39;100.00
11413;BME280;5762;43.256;26.960;2023-05-19T01:52:31;99498.91;;;15.40;100.00
11413;BME280;5762;43.256;26.960;2023-05-19T01:55:00;99487.10;;;15.42;100.00
11413;BME280;5762;43.256;26.960;2023-05-19T02:00:30;99501.25;;;15.29;100.00
11413;BME280;5762;43.256;26.960;2023-05-19T02:03:14;99501.05;;;15.34;100.00
11413;BME280;5762;43.256;26.960;2023-05-19T02:05:44;99514.42;;;15.27;100.00
11413;BME280;5762;43.256;26.960;2023-05-19T02:10:59;99507.20;;;15.37;100.00
11413;BME280;5762;43.256;26.960;2023-05-19T02:13:30;99513.45;;;15.38;100.00
11413;BME280;5762;43.256;26.960;2023-05-19T02:15:57;99505.70;;;15.34;100.00
11413;BME280;5762;43.256;26.960;2023-05-19T02:18:25;99512.87;;;15.38;100.00
11413;BME280;5762;43.256;26.960;2023-05-19T02:20:54;99510.36;;;15.33;100.00
11413;BME280;5762;43.256;26.960;2023-05-19T02:23:23;99511.62;;;15.36;100.00
11413;BME280;5762;43.256;26.960;2023-05-19T02:25:52;99520.59;;;15.36;100.00
11413;BME280;5762;43.256;26.960;2023-05-19T02:28:20;99533.27;;;15.26;100.00
11413;BME280;5762;43.256;26.960;2023-05-19T02:30:49;99538.49;;;15.25;100.00
11413;BME280;5762;43.256;26.960;2023-05-19T02:33:18;99537.36;;;15.26;100.00
11413;BME280;5762;43.256;26.960;2023-05-19T02:35:46;99538.52;;;15.31;100.00
11413;BME280;5762;43.256;26.960;2023-05-19T02:38:14;99539.91;;;15.37;100.00
11413;BME280;5762;43.256;26.960;2023-05-19T02:40:44;99547.37;;;15.28;100.00
11413;BME280;5762;43.256;26.960;2023-05-19T02:43:12;99553.84;;;15.24;100.00
11413;BME280;5762;43.256;26.960;2023-05-19T02:45:41;99564.72;;;15.18;100.00
11413;BME280;5762;43.256;26.960;2023-05-19T02:48:10;99556.64;;;15.15;100.00
11413;BME280;5762;43.256;26.960;2023-05-19T02:50:38;99558.70;;;15.18;100.00
11413;BME280;5762;43.256;26.960;2023-05-19T02:53:07;99559.80;;;15.11;100.00
11413;BME280;5762;43.256;26.960;2023-05-19T02:55:36;99563.98;;;15.08;100.00
11413;BME280;5762;43.256;26.960;2023-05-19T02:58:05;99564.03;;;15.00;100.00
11413;BME280;5762;43.256;26.960;2023-05-19T03:00:33;99562.50;;;14.90;100.00
11413;BME280;5762;43.256;26.960;2023-05-19T03:03:01;99568.17;;;14.91;100.00
11413;BME280;5762;43.256;26.960;2023-05-19T03:05:30;99564.88;;;14.86;100.00
11413;BME280;5762;43.256;26.960;2023-05-19T03:07:59;99572.86;;;14.76;100.00
11413;BME280;5762;43.256;26.960;2023-05-19T03:10:29;99574.22;;;14.76;100.00
11413;BME280;5762;43.256;26.960;2023-05-19T03:12:57;99576.29;;;14.79;100.00
11413;BME280;5762;43.256;26.960;2023-05-19T03:15:26;99582.06;;;14.78;100.00
11413;BME280;5762;43.256;26.960;2023-05-19T03:17:54;99579.95;;;14.83;100.00
11413;BME280;5762;43.256;26.960;2023-05-19T03:20:22;99576.38;;;14.77;100.00
11413;BME280;5762;43.256;26.960;2023-05-19T03:22:51;99580.75;;;14.84;100.00
11413;BME280;5762;43.256;26.960;2023-05-19T03:25:20;99581.78;;;14.85;100.00
11413;BME280;5762;43.256;26.960;2023-05-19T03:27:49;99577.27;;;14.89;100.00
11413;BME280;5762;43.256;26.960;2023-05-19T03:30:18;99577.43;;;14.99;100.00
11413;BME280;5762;43.256;26.960;2023-05-19T03:32:46;99586.41;;;14.99;100.00
11413;BME280;5762;43.256;26.960;2023-05-19T03:35:16;99584.48;;;15.00;100.00
11413;BME280;5762;43.256;26.960;2023-05-19T03:37:45;99578.60;;;15.04;100.00
11413;BME280;5762;43.256;26.960;2023-05-19T03:40:14;99588.65;;;15.12;100.00
11413;BME280;5762;43.256;26.960;2023-05-19T03:42:42;99585.63;;;15.20;100.00
11413;BME280;5762;43.256;26.960;2023-05-19T03:45:10;99578.72;;;15.22;100.00
11413;BME280;5762;43.256;26.960;2023-05-19T03:47:40;99584.08;;;15.31;100.00
11413;BME280;5762;43.256;26.960;2023-05-19T03:50:09;99590.00;;;15.33;100.00
11413;BME280;5762;43.256;26.960;2023-05-19T03:52:38;99596.52;;;15.40;100.00
11413;BME280;5762;43.256;26.960;2023-05-19T03:55:07;99602.24;;;15.48;100.00
11413;BME280;5762;43.256;26.960;2023-05-19T03:57:36;99604.44;;;15.54;100.00
11413;BME280;5762;43.256;26.960;2023-05-19T04:00:07;99609.02;;;15.62;100.00
11413;BME280;5762;43.256;26.960;2023-05-19T04:02:35;99609.39;;;15.67;100.00
11413;BME280;5762;43.256;26.960;2023-05-19T04:05:03;99607.22;;;15.66;100.00
11413;BME280;5762;43.256;26.960;2023-05-19T04:07:31;99612.02;;;15.69;100.00
11413;BME280;5762;43.256;26.960;2023-05-19T04:10:01;99602.47;;;15.69;100.00
11413;BME280;5762;43.256;26.960;2023-05-19T04:12:29;99607.74;;;15.81;100.00
11413;BME280;5762;43.256;26.960;2023-05-19T04:14:59;99602.49;;;15.75;100.00
11413;BME280;5762;43.256;26.960;2023-05-19T04:17:27;99616.20;;;15.67;100.00
11413;BME280;5762;43.256;26.960;2023-05-19T04:19:55;99617.27;;;15.54;100.00
11413;BME280;5762;43.256;26.960;2023-05-19T04:22:24;99616.08;;;15.63;100.00
11413;BME280;5762;43.256;26.960;2023-05-19T04:24:53;99618.23;;;15.64;100.00
11413;BME280;5762;43.256;26.960;2023-05-19T04:27:22;99622.13;;;15.69;100.00
11413;BME280;5762;43.256;26.960;2023-05-19T04:29:52;99628.58;;;15.64;100.00
11413;BME280;5762;43.256;26.960;2023-05-19T04:32:21;99628.18;;;15.74;100.00
11413;BME280;5762;43.256;26.960;2023-05-19T04:34:50;99635.96;;;15.85;100.00
11413;BME280;5762;43.256;26.960;2023-05-19T04:37:19;99637.33;;;15.85;100.00
11413;BME280;5762;43.256;26.960;2023-05-19T04:39:47;99638.61;;;15.93;100.00
11413;BME280;5762;43.256;26.960;2023-05-19T04:42:15;99639.77;;;16.04;100.00
11413;BME280;5762;43.256;26.960;2023-05-19T04:44:45;99634.58;;;16.18;100.00
11413;BME280;5762;43.256;26.960;2023-05-19T04:47:14;99633.00;;;16.23;100.00
11413;BME280;5762;43.256;26.960;2023-05-19T04:49:43;99642.78;;;16.24;100.00
11413;BME280;5762;43.256;26.960;2023-05-19T04:52:11;99636.87;;;16.34;100.00
11413;BME280;5762;43.256;26.960;2023-05-19T04:54:40;99637.36;;;16.48;100.00
11413;BME280;5762;43.256;26.960;2023-05-19T04:57:10;99637.48;;;16.58;100.00
11413;BME280;5762;43.256;26.960;2023-05-19T04:59:38;99638.29;;;16.64;100.00
11413;BME280;5762;43.256;26.960;2023-05-19T05:02:07;99642.04;;;16.60;100.00
11413;BME280;5762;43.256;26.960;2023-05-19T05:04:36;99644.95;;;16.36;100.00
11413;BME280;5762;43.256;26.960;2023-05-19T05:07:05;99641.67;;;16.43;100.00
11413;BME280;5762;43.256;26.960;2023-05-19T05:09:34;99638.11;;;16.30;100.00
11413;BME280;5762;43.256;26.960;2023-05-19T05:12:02;99642.79;;;16.36;100.00
11413;BME280;5762;43.256;26.960;2023-05-19T05:14:31;99646.09;;;16.35;100.00
11413;BME280;5762;43.256;26.960;2023-05-19T05:17:00;99639.59;;;16.34;100.00
11413;BME280;5762;43.256;26.960;2023-05-19T05:19:29;99636.67;;;16.45;100.00
11413;BME280;5762;43.256;26.960;2023-05-19T05:21:58;99637.45;;;16.39;100.00
11413;BME280;5762;43.256;26.960;2023-05-19T05:24:27;99645.78;;;16.49;100.00
11413;BME280;5762;43.256;26.960;2023-05-19T05:26:57;99644.20;;;16.60;100.00
11413;BME280;5762;43.256;26.960;2023-05-19T05:29:26;99644.68;;;16.74;100.00
11413;BME280;5762;43.256;26.960;2023-05-19T05:31:55;99642.87;;;16.91;100.00
11413;BME280;5762;43.256;26.960;2023-05-19T05:34:24;99647.20;;;16.98;100.00
11413;BME280;5762;43.256;26.960;2023-05-19T05:36:53;99646.81;;;17.18;100.00
11413;BME280;5762;43.256;26.960;2023-05-19T05:39:22;99650.11;;;17.29;100.00
11413;BME280;5762;43.256;26.960;2023-05-19T05:41:50;99651.99;;;17.47;100.00
11413;BME280;5762;43.256;26.960;2023-05-19T05:44:19;99655.83;;;17.64;100.00
11413;BME280;5762;43.256;26.960;2023-05-19T05:46:47;99652.94;;;17.79;100.00
11413;BME280;5762;43.256;26.960;2023-05-19T05:49:16;99647.42;;;17.91;100.00
11413;BME280;5762;43.256;26.960;2023-05-19T05:51:45;99653.14;;;18.08;100.00
11413;BME280;5762;43.256;26.960;2023-05-19T05:54:13;99645.22;;;18.19;100.00
11413;BME280;5762;43.256;26.960;2023-05-19T05:56:43;99646.72;;;18.16;100.00
11413;BME280;5762;43.256;26.960;2023-05-19T05:59:12;99651.47;;;18.25;100.00
11413;BME280;5762;43.256;26.960;2023-05-19T06:01:40;99646.78;;;18.26;100.00
11413;BME280;5762;43.256;26.960;2023-05-19T06:04:09;99651.97;;;18.15;100.00
11413;BME280;5762;43.256;26.960;2023-05-19T06:06:38;99655.12;;;18.23;100.00
11413;BME280;5762;43.256;26.960;2023-05-19T06:09:06;99656.38;;;18.26;100.00
11413;BME280;5762;43.256;26.960;2023-05-19T06:11:34;99659.53;;;18.34;100.00
11413;BME280;5762;43.256;26.960;2023-05-19T06:14:03;99661.25;;;18.32;100.00
11413;BME280;5762;43.256;26.960;2023-05-19T06:16:32;99667.05;;;18.53;100.00
11413;BME280;5762;43.256;26.960;2023-05-19T06:19:01;99661.73;;;18.66;100.00
11413;BME280;5762;43.256;26.960;2023-05-19T06:21:29;99666.95;;;18.71;100.00
11413;BME280;5762;43.256;26.960;2023-05-19T06:23:58;99670.03;;;18.85;100.00
11413;BME280;5762;43.256;26.960;2023-05-19T06:26:27;99669.36;;;18.98;100.00
11413;BME280;5762;43.256;26.960;2023-05-19T06:28:56;99669.89;;;19.13;100.00
11413;BME280;5762;43.256;26.960;2023-05-19T06:31:26;99670.03;;;19.36;100.00
11413;BME280;5762;43.256;26.960;2023-05-19T06:33:55;99671.88;;;19.22;100.00
11413;BME280;5762;43.256;26.960;2023-05-19T06:36:23;99673.34;;;19.45;100.00
11413;BME280;5762;43.256;26.960;2023-05-19T06:38:52;99673.06;;;19.66;100.00
11413;BME280;5762;43.256;26.960;2023-05-19T06:41:21;99676.00;;;19.77;100.00
11413;BME280;5762;43.256;26.960;2023-05-19T06:43:50;99673.20;;;19.63;100.00
11413;BME280;5762;43.256;26.960;2023-05-19T06:46:19;99673.12;;;19.60;100.00
11413;BME280;5762;43.256;26.960;2023-05-19T06:48:48;99674.05;;;19.58;100.00
11413;BME280;5762;43.256;26.960;2023-05-19T06:51:17;99669.72;;;19.86;100.00
11413;BME280;5762;43.256;26.960;2023-05-19T06:53:46;99674.24;;;20.17;100.00
11413;BME280;5762;43.256;26.960;2023-05-19T06:56:15;99680.35;;;20.49;100.00
11413;BME280;5762;43.256;26.960;2023-05-19T06:58:44;99683.66;;;20.58;100.00
11413;BME280;5762;43.256;26.960;2023-05-19T07:01:13;99677.25;;;20.73;100.00
11413;BME280;5762;43.256;26.960;2023-05-19T07:03:42;99680.50;;;20.46;100.00
11413;BME280;5762;43.256;26.960;2023-05-19T07:06:11;99689.12;;;20.45;100.00
11413;BME280;5762;43.256;26.960;2023-05-19T07:08:40;99686.58;;;20.78;100.00
11413;BME280;5762;43.256;26.960;2023-05-19T07:11:08;99683.79;;;21.01;100.00
11413;BME280;5762;43.256;26.960;2023-05-19T07:13:37;99681.75;;;21.21;100.00
11413;BME280;5762;43.256;26.960;2023-05-19T07:16:06;99682.44;;;21.40;100.00
11413;BME280;5762;43.256;26.960;2023-05-19T07:18:34;99672.80;;;21.40;100.00
11413;BME280;5762;43.256;26.960;2023-05-19T07:21:03;99677.04;;;21.48;100.00
11413;BME280;5762;43.256;26.960;2023-05-19T07:23:32;99683.92;;;21.48;100.00
11413;BME280;5762;43.256;26.960;2023-05-19T07:26:01;99683.67;;;21.60;100.00
11413;BME280;5762;43.256;26.960;2023-05-19T07:28:29;99684.72;;;21.48;100.00
11413;BME280;5762;43.256;26.960;2023-05-19T07:30:57;99682.92;;;21.63;100.00
11413;BME280;5762;43.256;26.960;2023-05-19T07:33:25;99677.87;;;21.82;100.00
11413;BME280;5762;43.256;26.960;2023-05-19T07:35:56;99675.31;;;21.99;100.00
11413;BME280;5762;43.256;26.960;2023-05-19T07:38:24;99669.58;;;22.32;100.00
11413;BME280;5762;43.256;26.960;2023-05-19T07:40:53;99675.88;;;22.12;100.00
11413;BME280;5762;43.256;26.960;2023-05-19T07:43:22;99667.50;;;22.22;100.00
11413;BME280;5762;43.256;26.960;2023-05-19T07:45:50;99677.13;;;22.38;100.00
11413;BME280;5762;43.256;26.960;2023-05-19T07:48:19;99677.88;;;22.56;100.00
11413;BME280;5762;43.256;26.960;2023-05-19T07:50:48;99679.59;;;22.71;100.00
11413;BME280;5762;43.256;26.960;2023-05-19T07:53:17;99684.29;;;22.67;100.00
11413;BME280;5762;43.256;26.960;2023-05-19T07:55:46;99675.66;;;22.48;100.00
11413;BME280;5762;43.256;26.960;2023-05-19T07:58:14;99673.49;;;22.71;100.00
11413;BME280;5762;43.256;26.960;2023-05-19T08:00:43;99681.12;;;22.65;100.00
11413;BME280;5762;43.256;26.960;2023-05-19T08:03:12;99671.30;;;22.91;100.00
11413;BME280;5762;43.256;26.960;2023-05-19T08:05:41;99684.66;;;23.10;100.00
11413;BME280;5762;43.256;26.960;2023-05-19T08:08:10;99680.34;;;23.12;100.00
11413;BME280;5762;43.256;26.960;2023-05-19T08:10:38;99682.23;;;23.32;100.00
11413;BME280;5762;43.256;26.960;2023-05-19T08:13:07;99687.02;;;23.69;100.00
11413;BME280;5762;43.256;26.960;2023-05-19T08:15:36;99676.20;;;23.78;100.00
11413;BME280;5762;43.256;26.960;2023-05-19T08:18:04;99687.55;;;23.55;100.00
11413;BME280;5762;43.256;26.960;2023-05-19T08:20:33;99689.67;;;23.52;100.00
11413;BME280;5762;43.256;26.960;2023-05-19T08:23:01;99692.17;;;23.75;100.00
11413;BME280;5762;43.256;26.960;2023-05-19T08:25:29;99691.82;;;23.83;100.00
11413;BME280;5762;43.256;26.960;2023-05-19T08:27:58;99685.98;;;24.10;100.00
11413;BME280;5762;43.256;26.960;2023-05-19T08:30:27;99685.09;;;23.81;100.00
11413;BME280;5762;43.256;26.960;2023-05-19T08:32:56;99701.58;;;24.08;100.00
11413;BME280;5762;43.256;26.960;2023-05-19T08:35:25;99697.47;;;24.19;100.00
11413;BME280;5762;43.256;26.960;2023-05-19T08:37:53;99698.70;;;24.32;100.00
11413;BME280;5762;43.256;26.960;2023-05-19T08:40:22;99712.41;;;24.56;100.00
11413;BME280;5762;43.256;26.960;2023-05-19T08:42:50;99700.98;;;24.09;100.00
11413;BME280;5762;43.256;26.960;2023-05-19T08:45:19;99705.74;;;24.12;100.00
11413;BME280;5762;43.256;26.960;2023-05-19T08:47:48;99694.28;;;24.10;100.00
11413;BME280;5762;43.256;26.960;2023-05-19T08:50:23;99709.16;;;24.29;100.00
11413;BME280;5762;43.256;26.960;2023-05-19T08:55:36;99700.35;;;23.98;100.00
11413;BME280;5762;43.256;26.960;2023-05-19T08:58:04;99696.63;;;24.04;100.00
11413;BME280;5762;43.256;26.960;2023-05-19T09:00:33;99696.95;;;24.41;100.00
11413;BME280;5762;43.256;26.960;2023-05-19T09:03:02;99701.52;;;24.60;100.00
11413;BME280;5762;43.256;26.960;2023-05-19T09:05:31;99693.38;;;24.33;100.00
11413;BME280;5762;43.256;26.960;2023-05-19T09:08:00;99689.27;;;24.51;100.00
11413;BME280;5762;43.256;26.960;2023-05-19T09:10:30;99691.27;;;25.03;100.00
11413;BME280;5762;43.256;26.960;2023-05-19T09:12:59;99690.28;;;25.09;100.00
11413;BME280;5762;43.256;26.960;2023-05-19T09:15:28;99687.70;;;25.17;100.00
11413;BME280;5762;43.256;26.960;2023-05-19T09:18:07;99681.17;;;25.26;100.00
11413;BME280;5762;43.256;26.960;2023-05-19T09:20:41;99693.00;;;25.34;100.00
11413;BME280;5762;43.256;26.960;2023-05-19T09:23:05;99676.04;;;24.86;100.00
11413;BME280;5762;43.256;26.960;2023-05-19T09:25:34;99676.44;;;25.13;100.00
11413;BME280;5762;43.256;26.960;2023-05-19T09:28:03;99689.69;;;25.24;100.00
11413;BME280;5762;43.256;26.960;2023-05-19T09:30:32;99676.77;;;25.36;100.00
11413;BME280;5762;43.256;26.960;2023-05-19T09:33:01;99664.45;;;25.58;100.00
11413;BME280;5762;43.256;26.960;2023-05-19T09:35:30;99665.58;;;25.79;100.00
11413;BME280;5762;43.256;26.960;2023-05-19T09:37:59;99657.16;;;25.49;100.00
11413;BME280;5762;43.256;26.960;2023-05-19T09:40:28;99655.35;;;25.58;100.00
11413;BME280;5762;43.256;26.960;2023-05-19T09:42:58;99668.72;;;24.77;100.00
11413;BME280;5762;43.256;26.960;2023-05-19T09:47:54;99668.66;;;24.27;100.00
11413;BME280;5762;43.256;26.960;2023-05-19T09:50:22;99659.23;;;24.60;100.00
11413;BME280;5762;43.256;26.960;2023-05-19T09:52:51;99642.40;;;25.19;100.00
11413;BME280;5762;43.256;26.960;2023-05-19T09:55:20;99642.23;;;25.76;100.00
11413;BME280;5762;43.256;26.960;2023-05-19T09:57:49;99652.44;;;25.35;100.00
11413;BME280;5762;43.256;26.960;2023-05-19T10:00:18;99651.99;;;25.55;100.00
11413;BME280;5762;43.256;26.960;2023-05-19T10:02:47;99653.55;;;25.63;100.00
11413;BME280;5762;43.256;26.960;2023-05-19T10:05:17;99640.13;;;25.51;100.00
11413;BME280;5762;43.256;26.960;2023-05-19T10:07:49;99639.42;;;25.25;100.00
11413;BME280;5762;43.256;26.960;2023-05-19T10:10:17;99642.21;;;25.11;100.00
11413;BME280;5762;43.256;26.960;2023-05-19T10:12:47;99652.70;;;24.48;100.00
11413;BME280;5762;43.256;26.960;2023-05-19T10:15:17;99663.91;;;24.24;100.00
11413;BME280;5762;43.256;26.960;2023-05-19T10:17:46;99669.04;;;23.35;100.00
11413;BME280;5762;43.256;26.960;2023-05-19T10:20:16;99659.73;;;22.51;100.00
11413;BME280;5762;43.256;26.960;2023-05-19T10:22:45;99663.73;;;21.87;100.00
11413;BME280;5762;43.256;26.960;2023-05-19T10:25:13;99665.23;;;21.34;100.00
11413;BME280;5762;43.256;26.960;2023-05-19T10:27:44;99665.57;;;21.19;100.00
11413;BME280;5762;43.256;26.960;2023-05-19T10:30:16;99663.63;;;21.06;100.00
11413;BME280;5762;43.256;26.960;2023-05-19T10:32:45;99659.51;;;21.06;100.00
11413;BME280;5762;43.256;26.960;2023-05-19T10:46:05;99644.00;;;21.34;100.00
11413;BME280;5762;43.256;26.960;2023-05-19T10:48:34;99643.27;;;21.37;100.00
11413;BME280;5762;43.256;26.960;2023-05-19T10:51:03;99649.36;;;21.54;100.00
11413;BME280;5762;43.256;26.960;2023-05-19T10:53:32;99639.58;;;21.73;100.00
11413;BME280;5762;43.256;26.960;2023-05-19T10:56:01;99646.08;;;21.91;100.00
11413;BME280;5762;43.256;26.960;2023-05-19T10:58:37;99663.82;;;21.94;100.00
11413;BME280;5762;43.256;26.960;2023-05-19T11:01:07;99671.67;;;21.92;100.00
11413;BME280;5762;43.256;26.960;2023-05-19T11:03:48;99722.62;;;20.96;100.00
11413;BME280;5762;43.256;26.960;2023-05-19T11:08:51;99695.75;;;20.01;100.00
11413;BME280;5762;43.256;26.960;2023-05-19T11:11:17;99700.14;;;19.77;100.00
11413;BME280;5762;43.256;26.960;2023-05-19T11:13:49;99705.29;;;19.69;100.00
11413;BME280;5762;43.256;26.960;2023-05-19T11:16:25;99684.48;;;19.68;100.00
11413;BME280;5762;43.256;26.960;2023-05-19T11:18:48;99661.41;;;20.01;100.00
11413;BME280;5762;43.256;26.960;2023-05-19T11:21:18;99668.03;;;20.39;100.00
11413;BME280;5762;43.256;26.960;2023-05-19T11:23:46;99664.51;;;20.88;100.00
11413;BME280;5762;43.256;26.960;2023-05-19T11:26:15;99675.79;;;21.19;100.00
11413;BME280;5762;43.256;26.960;2023-05-19T11:28:44;99661.31;;;21.35;100.00
11413;BME280;5762;43.256;26.960;2023-05-19T11:31:15;99665.66;;;21.66;100.00
11413;BME280;5762;43.256;26.960;2023-05-19T11:33:45;99663.73;;;21.87;100.00
11413;BME280;5762;43.256;26.960;2023-05-19T11:36:15;99654.96;;;22.08;100.00
11413;BME280;5762;43.256;26.960;2023-05-19T11:38:44;99657.45;;;22.40;100.00
11413;BME280;5762;43.256;26.960;2023-05-19T11:41:14;99645.02;;;22.60;100.00
11413;BME280;5762;43.256;26.960;2023-05-19T11:43:43;99646.02;;;22.62;100.00
11413;BME280;5762;43.256;26.960;2023-05-19T11:46:12;99645.80;;;22.61;100.00
11413;BME280;5762;43.256;26.960;2023-05-19T11:48:41;99640.33;;;22.85;100.00
11413;BME280;5762;43.256;26.960;2023-05-19T11:51:10;99639.53;;;23.50;100.00
11413;BME280;5762;43.256;26.960;2023-05-19T11:53:38;99639.50;;;23.84;100.00
11413;BME280;5762;43.256;26.960;2023-05-19T11:56:07;99637.86;;;24.25;100.00
11413;BME280;5762;43.256;26.960;2023-05-19T11:58:36;99631.94;;;24.83;100.00
11413;BME280;5762;43.256;26.960;2023-05-19T12:01:05;99625.11;;;25.41;100.00
11413;BME280;5762;43.256;26.960;2023-05-19T12:03:33;99617.05;;;25.82;100.00
11413;BME280;5762;43.256;26.960;2023-05-19T12:06:02;99624.97;;;26.17;100.00
11413;BME280;5762;43.256;26.960;2023-05-19T12:08:32;99626.23;;;26.01;100.00
11413;BME280;5762;43.256;26.960;2023-05-19T12:11:00;99631.55;;;26.08;100.00
11413;BME280;5762;43.256;26.960;2023-05-19T12:13:29;99628.20;;;25.64;100.00
11413;BME280;5762;43.256;26.960;2023-05-19T12:15:59;99624.17;;;25.83;100.00
11413;BME280;5762;43.256;26.960;2023-05-19T12:18:35;99634.59;;;25.47;100.00
11413;BME280;5762;43.256;26.960;2023-05-19T12:21:00;99634.01;;;25.44;100.00
11413;BME280;5762;43.256;26.960;2023-05-19T12:23:29;99627.85;;;25.52;100.00
11413;BME280;5762;43.256;26.960;2023-05-19T12:25:58;99628.17;;;25.10;100.00
11413;BME280;5762;43.256;26.960;2023-05-19T12:28:30;99634.31;;;24.92;100.00
11413;BME280;5762;43.256;26.960;2023-05-19T12:30:59;99646.95;;;24.25;100.00
11413;BME280;5762;43.256;26.960;2023-05-19T12:33:29;99640.13;;;23.98;100.00
11413;BME280;5762;43.256;26.960;2023-05-19T12:35:58;99639.33;;;23.90;100.00
11413;BME280;5762;43.256;26.960;2023-05-19T12:38:26;99644.05;;;23.86;100.00
11413;BME280;5762;43.256;26.960;2023-05-19T12:40:57;99645.66;;;23.91;100.00
11413;BME280;5762;43.256;26.960;2023-05-19T12:43:24;99636.82;;;24.16;100.00
11413;BME280;5762;43.256;26.960;2023-05-19T12:45:53;99640.27;;;24.58;100.00
11413;BME280;5762;43.256;26.960;2023-05-19T12:48:22;99638.47;;;24.95;100.00
11413;BME280;5762;43.256;26.960;2023-05-19T12:50:51;99626.27;;;25.54;100.00
11413;BME280;5762;43.256;26.960;2023-05-19T12:53:20;99636.25;;;25.27;100.00
11413;BME280;5762;43.256;26.960;2023-05-19T12:55:50;99629.77;;;24.79;100.00
11413;BME280;5762;43.256;26.960;2023-05-19T12:58:19;99633.15;;;24.57;100.00
11413;BME280;5762;43.256;26.960;2023-05-19T13:00:49;99630.95;;;24.67;100.00
11413;BME280;5762;43.256;26.960;2023-05-19T13:03:18;99613.95;;;24.80;100.00
11413;BME280;5762;43.256;26.960;2023-05-19T13:05:48;99618.48;;;25.03;100.00
11413;BME280;5762;43.256;26.960;2023-05-19T13:08:18;99614.14;;;24.88;100.00
11413;BME280;5762;43.256;26.960;2023-05-19T13:10:47;99606.82;;;24.93;100.00
11413;BME280;5762;43.256;26.960;2023-05-19T13:13:16;99601.88;;;24.92;100.00
11413;BME280;5762;43.256;26.960;2023-05-19T13:15:45;99612.56;;;24.83;100.00
11413;BME280;5762;43.256;26.960;2023-05-19T13:18:16;99603.86;;;24.78;100.00
11413;BME280;5762;43.256;26.960;2023-05-19T13:20:44;99608.61;;;24.84;100.00
11413;BME280;5762;43.256;26.960;2023-05-19T13:23:14;99616.72;;;24.72;100.00
11413;BME280;5762;43.256;26.960;2023-05-19T13:25:43;99620.67;;;24.79;100.00
11413;BME280;5762;43.256;26.960;2023-05-19T13:28:10;99613.70;;;25.21;100.00
11413;BME280;5762;43.256;26.960;2023-05-19T13:30:39;99619.28;;;24.86;100.00
11413;BME280;5762;43.256;26.960;2023-05-19T13:33:08;99623.04;;;24.66;100.00
11413;BME280;5762;43.256;26.960;2023-05-19T13:35:36;99614.48;;;25.25;100.00